Kulusuk Lufthavn, Greenland

8:17 PM WGT on December 02, 2016 (GMT -0300)
Kulusuk | | Change Station

Elev 90 ft 65.58 °N, 37.19 °W | Updated 15 seconds ago

Light Snow
Light Snow
29.5 °F
Feels Like 30 °F
N
0.0
Wind Variable Wind from NW
Gusts 0.0 mph

Today
High -- | Low -- °F
--% Chance of Precip.
Yesterday
High -- | Low -- °F
Precip. -- in
Pressure 29.68 in
Visibility 6.2 miles
Clouds Mostly Cloudy 1500 ft
Overcast 3000 ft
Windchill 30 °F
Dew Point 29 °F
Humidity 97%
Rainfall 0.00 in
Snow Depth Not available.
9:12 AM 1:23 PM
Waxing Crescent, 11% visible
METAR BGKK 022250Z AUTO 19003KT 9999NDV -SN BKN015/// OVC030/// M01/M03 Q1005
Pressure 29.68 in
Visibility 6.2 miles
Clouds Mostly Cloudy 1500 ft
Overcast 3000 ft
Windchill 30 °F
Dew Point 29 °F
Humidity 97%
Rainfall 0.00 in
Snow Depth Not available.
9:12 AM 1:23 PM
Waxing Crescent, 11% visible
METAR BGKK 022250Z AUTO 19003KT 9999NDV -SN BKN015/// OVC030/// M01/M03 Q1005

10-Day Weather Forecast

×

Almanac

Astronomy

Dec. 02, 2016 Rise Set
Actual Time
Civil Twilight
Nautical Twilight
Astronomical Twilight
Moon
Length of Visible Light
Length of Day
Tomorrow will be .
, % of the Moon is Illuminated

Today's Extremes

Country Highs Country Lows

Community

WunderPhotos

Upload Photos

1,955,377 photos uploaded!

WunderBlog® & News

Nearby

Air Quality

  Air Quality AQ Index Pollutant
Not available.

Snow Depth

Station Depth Elevation

Earthquake Activity

City Distance Mag. Time & Date
Minimum magnitude displayed is 2.5.

Coastal Water Temperatures

Place Temperature

Stations

Nearby Weather Stations

Station Location Temp. Windchill Dew Point Humidity Wind Precip. Elev Updated Type